Time;durP1;ratioP1;P1;durP2;ratioP2;P2;SDS_P1;SDS_P2;PMS_P1;PMS_P2;Temp;Humidity;BMP_temperature;BMP_pressure;BME280_temperature;BME280_humidity;BME280_pressure;Samples;Min_cycle;Max_cycle;Signal;HPM_P1;HPM_P2
2022/03/04 00:01:12;;;;;;;34.93;19.40;;;;;;;;;;5052297;28;20429;-81
2022/03/04 00:03:38;;;;;;;32.47;19.10;;;;;;;;;;5056888;28;20850;-81
2022/03/04 00:06:04;;;;;;;33.83;20.40;;;;;;;;;;5053748;28;20907;-81
2022/03/04 00:08:31;;;;;;;33.90;19.67;;;;;;;;;;5055978;28;20474;-78
2022/03/04 00:10:57;;;;;;;34.00;19.00;;;;;;;;;;5051515;28;20433;-81
2022/03/04 00:13:23;;;;;;;31.38;19.20;;;;;;;;;;5056858;28;20414;-81
2022/03/04 00:15:50;;;;;;;31.70;19.17;;;;;;;;;;5048500;28;20507;-80
2022/03/04 00:18:17;;;;;;;37.60;20.52;;;;;;;;;;5054862;28;20456;-80
2022/03/04 00:20:44;;;;;;;36.13;20.42;;;;;;;;;;5046890;28;20417;-81
2022/03/04 00:23:10;;;;;;;35.93;20.40;;;;;;;;;;5056177;28;20413;-81
2022/03/04 00:25:36;;;;;;;37.47;20.80;;;;;;;;;;5051925;28;20911;-80
2022/03/04 00:28:03;;;;;;;34.53;20.23;;;;;;;;;;5054536;28;20413;-79
2022/03/04 00:30:29;;;;;;;35.65;21.00;;;;;;;;;;5050999;28;20421;-81
2022/03/04 00:32:55;;;;;;;38.35;21.83;;;;;;;;;;5050519;28;20426;-82
2022/03/04 00:35:24;;;;;;;35.67;20.42;;;;;;;;;;5054395;28;20448;-81
2022/03/04 00:37:50;;;;;;;35.08;20.60;;;;;;;;;;5055943;28;20485;-81
2022/03/04 00:40:17;;;;;;;39.78;21.00;;;;;;;;;;5046638;28;20899;-80
2022/03/04 00:42:43;;;;;;;38.92;22.80;;;;;;;;;;5055267;28;20420;-80
2022/03/04 00:45:10;;;;;;;34.35;20.77;;;;;;;;;;5055629;28;20474;-81
2022/03/04 00:47:36;;;;;;;35.75;21.40;;;;;;;;;;5053684;28;20424;-81
2022/03/04 00:50:03;;;;;;;36.80;21.52;;;;;;;;;;5049307;28;20471;-80
2022/03/04 00:52:31;;;;;;;42.67;21.35;;;;;;;;;;5047812;28;20422;-78
2022/03/04 00:54:57;;;;;;;36.63;21.63;;;;;;;;;;5052716;28;20421;-81
2022/03/04 00:57:24;;;;;;;42.33;23.05;;;;;;;;;;5048075;28;20423;-80
2022/03/04 00:59:50;;;;;;;40.50;23.47;;;;;;;;;;5049621;28;20410;-80
2022/03/04 01:02:16;;;;;;;44.20;22.70;;;;;;;;;;5052242;28;20431;-81
2022/03/04 01:04:42;;;;;;;43.22;22.73;;;;;;;;;;5042909;28;20425;-79
2022/03/04 01:07:09;;;;;;;42.65;24.92;;;;;;;;;;5046745;28;20421;-81
2022/03/04 01:09:36;;;;;;;44.80;23.70;;;;;;;;;;5050804;28;20417;-81
2022/03/04 01:12:03;;;;;;;39.08;22.98;;;;;;;;;;5049177;28;20850;-81
2022/03/04 01:14:29;;;;;;;43.78;23.92;;;;;;;;;;5046891;28;20425;-81
2022/03/04 01:16:55;;;;;;;44.40;23.40;;;;;;;;;;5052099;28;20471;-81
2022/03/04 01:19:22;;;;;;;43.25;24.10;;;;;;;;;;5054053;28;20421;-81
2022/03/04 01:21:48;;;;;;;42.22;23.65;;;;;;;;;;5053879;28;20409;-80
2022/03/04 01:24:14;;;;;;;43.15;24.33;;;;;;;;;;5058014;28;20441;-80
2022/03/04 01:26:42;;;;;;;45.22;23.42;;;;;;;;;;5056024;28;20417;-81
2022/03/04 01:29:08;;;;;;;38.57;22.30;;;;;;;;;;5048577;28;20429;-81
2022/03/04 01:31:34;;;;;;;42.80;23.75;;;;;;;;;;5056744;28;20589;-80
2022/03/04 01:34:01;;;;;;;39.10;22.83;;;;;;;;;;5056237;28;20420;-81
2022/03/04 01:36:32;;;;;;;38.60;21.63;;;;;;;;;;5055928;28;20429;-81
2022/03/04 01:38:58;;;;;;;40.03;22.92;;;;;;;;;;5055391;28;20435;-80
2022/03/04 01:41:25;;;;;;;40.45;22.00;;;;;;;;;;5055295;28;20409;-80
2022/03/04 01:43:52;;;;;;;43.40;22.35;;;;;;;;;;5024328;28;20467;-81
2022/03/04 01:46:19;;;;;;;39.47;22.37;;;;;;;;;;5020522;28;20420;-81
2022/03/04 01:48:46;;;;;;;41.03;23.58;;;;;;;;;;5030001;28;20423;-81
2022/03/04 01:51:13;;;;;;;39.50;22.63;;;;;;;;;;5018621;28;20420;-80
2022/03/04 01:53:40;;;;;;;39.88;23.23;;;;;;;;;;5026325;28;20411;-80
2022/03/04 01:56:06;;;;;;;40.28;23.05;;;;;;;;;;5020165;28;20492;-81
2022/03/04 01:58:32;;;;;;;41.03;22.65;;;;;;;;;;5020732;28;20835;-79
2022/03/04 02:01:00;;;;;;;39.05;21.85;;;;;;;;;;5015968;28;20420;-80
2022/03/04 02:03:26;;;;;;;40.45;23.33;;;;;;;;;;5029215;28;20422;-81
2022/03/04 02:05:53;;;;;;;42.50;23.58;;;;;;;;;;5029067;28;20419;-81
2022/03/04 02:08:19;;;;;;;41.90;23.87;;;;;;;;;;5033492;28;20419;-80
2022/03/04 02:10:45;;;;;;;40.10;23.80;;;;;;;;;;5029740;28;20443;-80
2022/03/04 02:13:12;;;;;;;45.83;24.63;;;;;;;;;;5036418;28;20445;-80
2022/03/04 02:15:38;;;;;;;40.22;22.65;;;;;;;;;;5038840;28;20477;-80
2022/03/04 02:18:11;;;;;;;40.60;23.15;;;;;;;;;;5033891;28;20427;-78
2022/03/04 02:20:39;;;;;;;43.78;23.30;;;;;;;;;;5037084;28;20423;-81
2022/03/04 02:23:07;;;;;;;39.88;23.20;;;;;;;;;;5035622;28;20916;-81
2022/03/04 02:25:33;;;;;;;47.25;24.63;;;;;;;;;;5036117;28;20518;-80
2022/03/04 02:28:00;;;;;;;42.97;23.67;;;;;;;;;;5041971;28;20426;-80
2022/03/04 02:30:26;;;;;;;37.78;22.90;;;;;;;;;;5053535;28;20432;-81
2022/03/04 02:32:52;;;;;;;44.50;24.65;;;;;;;;;;5055953;28;20432;-80
2022/03/04 02:35:18;;;;;;;41.58;22.70;;;;;;;;;;5047886;28;20455;-80
2022/03/04 02:37:45;;;;;;;41.92;24.10;;;;;;;;;;5055285;28;20421;-80
2022/03/04 02:40:14;;;;;;;45.65;24.88;;;;;;;;;;5049229;28;20415;-80
2022/03/04 02:42:40;;;;;;;42.20;23.60;;;;;;;;;;5039587;28;20479;-81
2022/03/04 02:45:07;;;;;;;44.40;24.20;;;;;;;;;;5019451;28;20424;-81
2022/03/04 02:47:33;;;;;;;47.95;24.58;;;;;;;;;;5026891;28;20424;-80
2022/03/04 02:49:59;;;;;;;46.05;24.83;;;;;;;;;;5027672;28;20433;-81
2022/03/04 02:52:26;;;;;;;40.15;22.70;;;;;;;;;;5030951;28;20419;-80
2022/03/04 02:54:52;;;;;;;43.10;23.98;;;;;;;;;;5022471;28;20474;-81
2022/03/04 02:57:19;;;;;;;49.00;25.25;;;;;;;;;;5022128;28;20416;-80
2022/03/04 02:59:46;;;;;;;45.60;25.10;;;;;;;;;;5030113;28;20431;-81
2022/03/04 03:02:12;;;;;;;43.90;22.90;;;;;;;;;;5037024;28;20419;-81
2022/03/04 03:04:38;;;;;;;42.90;24.00;;;;;;;;;;5026245;28;20421;-80
2022/03/04 03:07:05;;;;;;;44.20;23.70;;;;;;;;;;5034383;28;20421;-80
2022/03/04 03:09:31;;;;;;;43.30;23.30;;;;;;;;;;5023110;28;20421;-80
2022/03/04 03:11:57;;;;;;;41.75;23.50;;;;;;;;;;5023262;28;20427;-80
2022/03/04 03:14:25;;;;;;;44.53;23.27;;;;;;;;;;5038038;28;21035;-80
2022/03/04 03:16:51;;;;;;;45.55;23.95;;;;;;;;;;5034174;28;20416;-80
2022/03/04 03:19:17;;;;;;;43.50;23.15;;;;;;;;;;5037208;28;20929;-80
2022/03/04 03:21:44;;;;;;;42.45;23.77;;;;;;;;;;5036021;28;20419;-80
2022/03/04 03:24:10;;;;;;;45.50;24.10;;;;;;;;;;5034792;28;20415;-81
2022/03/04 03:26:36;;;;;;;43.42;23.88;;;;;;;;;;5038424;28;20411;-80
2022/03/04 03:29:03;;;;;;;40.10;22.17;;;;;;;;;;5048460;28;20436;-81
2022/03/04 03:31:30;;;;;;;44.38;24.08;;;;;;;;;;5054082;28;20417;-81
2022/03/04 03:33:57;;;;;;;41.05;23.58;;;;;;;;;;5052970;28;20421;-78
2022/03/04 03:36:23;;;;;;;42.55;22.30;;;;;;;;;;5045404;28;20413;-80
2022/03/04 03:38:49;;;;;;;41.93;23.30;;;;;;;;;;5030638;28;20420;-80
2022/03/04 03:41:15;;;;;;;36.03;21.88;;;;;;;;;;5032931;28;20588;-81
2022/03/04 03:43:42;;;;;;;38.67;21.17;;;;;;;;;;5032069;28;20445;-80
2022/03/04 03:46:09;;;;;;;36.00;21.20;;;;;;;;;;5033698;28;20426;-81
2022/03/04 03:48:39;;;;;;;36.47;21.50;;;;;;;;;;5037459;28;20908;-80
2022/03/04 03:51:06;;;;;;;37.95;20.85;;;;;;;;;;5030804;28;20426;-80
2022/03/04 03:53:32;;;;;;;33.85;20.50;;;;;;;;;;5053057;28;20452;-81
2022/03/04 03:55:58;;;;;;;35.95;21.17;;;;;;;;;;5053081;28;20455;-81
2022/03/04 03:58:25;;;;;;;38.75;21.10;;;;;;;;;;5054824;28;20413;-80
2022/03/04 04:00:51;;;;;;;40.75;21.65;;;;;;;;;;5056450;28;20402;-81
2022/03/04 04:03:17;;;;;;;45.22;22.50;;;;;;;;;;5058705;28;20425;-81
2022/03/04 04:05:45;;;;;;;36.22;21.30;;;;;;;;;;5054821;28;20433;-80
2022/03/04 04:08:11;;;;;;;36.92;21.13;;;;;;;;;;5045438;28;20421;-80
2022/03/04 04:10:37;;;;;;;35.25;20.63;;;;;;;;;;5058017;28;20421;-81
2022/03/04 04:13:04;;;;;;;35.92;21.65;;;;;;;;;;5052228;28;20422;-81
2022/03/04 04:15:30;;;;;;;39.45;21.60;;;;;;;;;;5058624;28;20413;-80
2022/03/04 04:17:56;;;;;;;42.25;21.85;;;;;;;;;;5048262;28;20430;-80
2022/03/04 04:20:22;;;;;;;36.65;20.27;;;;;;;;;;5053804;28;20431;-81
2022/03/04 04:22:50;;;;;;;39.67;20.83;;;;;;;;;;5048785;28;20474;-80
2022/03/04 04:25:16;;;;;;;37.10;20.55;;;;;;;;;;5055601;28;20413;-80
2022/03/04 04:27:42;;;;;;;36.60;21.95;;;;;;;;;;5050081;28;20419;-81
2022/03/04 04:30:09;;;;;;;33.42;19.88;;;;;;;;;;5047347;28;20925;-81
2022/03/04 04:32:35;;;;;;;38.35;20.60;;;;;;;;;;5055365;28;20417;-81
2022/03/04 04:35:03;;;;;;;39.17;21.73;;;;;;;;;;5057527;28;20482;-81
2022/03/04 04:37:29;;;;;;;38.15;21.25;;;;;;;;;;5049251;28;20966;-81
2022/03/04 04:39:57;;;;;;;37.42;20.58;;;;;;;;;;5054611;28;20422;-81
2022/03/04 04:42:23;;;;;;;37.45;20.40;;;;;;;;;;5054269;28;20475;-81
2022/03/04 04:44:49;;;;;;;32.25;20.20;;;;;;;;;;5056514;28;20421;-80
2022/03/04 04:47:15;;;;;;;36.55;21.38;;;;;;;;;;5056130;28;20448;-82
2022/03/04 04:49:42;;;;;;;38.80;19.80;;;;;;;;;;5054071;28;20410;-81
2022/03/04 04:52:08;;;;;;;34.33;20.15;;;;;;;;;;5048041;28;20438;-80
2022/03/04 04:54:35;;;;;;;36.17;18.90;;;;;;;;;;5048625;28;20499;-79
2022/03/04 04:57:03;;;;;;;30.07;19.40;;;;;;;;;;5052593;28;20417;-79
2022/03/04 04:59:29;;;;;;;33.50;19.48;;;;;;;;;;5050591;28;20455;-79
2022/03/04 05:01:55;;;;;;;35.50;19.48;;;;;;;;;;5051489;28;20417;-78
2022/03/04 05:04:21;;;;;;;31.95;19.27;;;;;;;;;;5050368;28;20905;-79
2022/03/04 05:06:48;;;;;;;32.88;19.05;;;;;;;;;;5053950;28;20830;-80
2022/03/04 05:09:14;;;;;;;34.35;19.38;;;;;;;;;;5053724;28;20413;-79
2022/03/04 05:11:40;;;;;;;32.20;19.00;;;;;;;;;;5049537;28;20433;-79
2022/03/04 05:14:08;;;;;;;37.60;21.20;;;;;;;;;;5053109;28;20413;-79
2022/03/04 05:16:34;;;;;;;35.72;20.00;;;;;;;;;;5047854;28;20416;-79
2022/03/04 05:19:00;;;;;;;34.03;19.70;;;;;;;;;;5043784;28;20815;-79
2022/03/04 05:21:27;;;;;;;32.08;19.42;;;;;;;;;;5046520;28;20428;-78
2022/03/04 05:24:03;;;;;;;37.00;20.07;;;;;;;;;;5042416;28;20987;-79
2022/03/04 05:26:30;;;;;;;31.67;19.20;;;;;;;;;;5044394;28;20504;-79
2022/03/04 05:28:56;;;;;;;35.95;19.90;;;;;;;;;;5043887;28;20428;-79
2022/03/04 05:31:24;;;;;;;37.35;20.77;;;;;;;;;;5044668;28;20425;-79
2022/03/04 05:33:51;;;;;;;37.78;20.63;;;;;;;;;;5047146;28;20425;-80
2022/03/04 05:36:17;;;;;;;36.97;20.63;;;;;;;;;;5049729;28;20447;-79
2022/03/04 05:38:43;;;;;;;38.90;21.05;;;;;;;;;;5043472;28;20421;-78
2022/03/04 05:41:10;;;;;;;30.48;18.48;;;;;;;;;;5042901;28;20429;-77
2022/03/04 05:43:37;;;;;;;39.92;21.67;;;;;;;;;;5049245;28;20535;-79
2022/03/04 05:46:04;;;;;;;30.95;18.95;;;;;;;;;;5047761;28;20470;-79
2022/03/04 05:48:31;;;;;;;36.03;20.35;;;;;;;;;;5051496;28;20428;-79
2022/03/04 05:50:58;;;;;;;36.72;19.52;;;;;;;;;;5047293;28;20449;-79
2022/03/04 05:53:24;;;;;;;36.97;20.23;;;;;;;;;;5052731;28;20475;-80
2022/03/04 05:55:50;;;;;;;31.48;18.85;;;;;;;;;;5059225;28;20413;-79
2022/03/04 05:58:16;;;;;;;32.70;19.10;;;;;;;;;;5050146;28;20421;-79
2022/03/04 06:00:43;;;;;;;35.20;20.30;;;;;;;;;;5052441;28;20412;-78
2022/03/04 06:03:09;;;;;;;35.38;19.60;;;;;;;;;;5052729;28;20429;-79
2022/03/04 06:05:37;;;;;;;31.15;19.60;;;;;;;;;;5050162;28;20429;-80
2022/03/04 06:08:03;;;;;;;35.20;19.67;;;;;;;;;;5051297;28;20421;-76
2022/03/04 06:10:29;;;;;;;30.85;18.10;;;;;;;;;;5050423;28;20429;-79
2022/03/04 06:12:56;;;;;;;33.67;18.67;;;;;;;;;;5049597;28;20514;-79
2022/03/04 06:15:22;;;;;;;30.92;19.33;;;;;;;;;;5048791;28;20466;-79
2022/03/04 06:17:48;;;;;;;34.88;18.40;;;;;;;;;;5042916;28;21088;-79
2022/03/04 06:20:15;;;;;;;31.02;17.67;;;;;;;;;;5045728;28;20807;-79
2022/03/04 06:22:42;;;;;;;31.10;18.05;;;;;;;;;;5042914;28;20413;-79
2022/03/04 06:25:09;;;;;;;30.52;19.00;;;;;;;;;;5050509;28;20436;-79
2022/03/04 06:27:35;;;;;;;35.20;19.15;;;;;;;;;;5049986;28;20466;-78
2022/03/04 06:30:01;;;;;;;29.45;18.15;;;;;;;;;;5042555;28;20418;-78
2022/03/04 06:32:40;;;;;;;35.50;18.90;;;;;;;;;;5050968;28;20431;-78
2022/03/04 06:35:06;;;;;;;34.13;19.65;;;;;;;;;;5039290;28;20435;-78
2022/03/04 06:37:33;;;;;;;32.85;18.42;;;;;;;;;;5043958;28;20463;-78
2022/03/04 06:40:00;;;;;;;34.10;20.17;;;;;;;;;;5046019;28;20442;-79
2022/03/04 06:42:27;;;;;;;35.87;19.60;;;;;;;;;;5046130;28;20421;-79
2022/03/04 06:44:53;;;;;;;38.25;20.00;;;;;;;;;;5047599;28;20437;-79
2022/03/04 06:47:19;;;;;;;33.03;19.92;;;;;;;;;;5041095;28;20417;-79
2022/03/04 06:49:45;;;;;;;35.25;19.40;;;;;;;;;;5042208;28;20465;-79
2022/03/04 06:52:11;;;;;;;33.03;19.45;;;;;;;;;;5044857;28;20410;-79
2022/03/04 06:54:39;;;;;;;33.30;19.30;;;;;;;;;;5042983;28;20433;-79
2022/03/04 06:57:06;;;;;;;31.63;19.17;;;;;;;;;;5047720;28;20510;-77
2022/03/04 06:59:33;;;;;;;37.72;19.30;;;;;;;;;;5044739;28;20505;-78
2022/03/04 07:01:59;;;;;;;35.15;20.08;;;;;;;;;;5050289;28;20417;-79
2022/03/04 07:04:25;;;;;;;32.67;19.40;;;;;;;;;;5049010;28;20471;-79
2022/03/04 07:06:51;;;;;;;37.28;21.27;;;;;;;;;;5045932;28;20538;-79
2022/03/04 07:09:18;;;;;;;34.27;20.10;;;;;;;;;;5040267;28;20432;-79
2022/03/04 07:11:44;;;;;;;37.47;20.55;;;;;;;;;;5041266;28;20437;-79
2022/03/04 07:14:12;;;;;;;36.60;20.33;;;;;;;;;;5045658;28;20421;-79
2022/03/04 07:16:38;;;;;;;32.50;18.80;;;;;;;;;;5045500;28;20429;-79
2022/03/04 07:19:04;;;;;;;32.25;19.40;;;;;;;;;;5045567;28;20436;-79
2022/03/04 07:21:31;;;;;;;34.97;18.85;;;;;;;;;;5048304;28;20945;-79
2022/03/04 07:23:57;;;;;;;37.30;20.20;;;;;;;;;;5045677;28;20430;-79
2022/03/04 07:26:23;;;;;;;37.00;19.60;;;;;;;;;;5045998;28;20426;-79
2022/03/04 07:28:50;;;;;;;37.17;19.77;;;;;;;;;;5041975;28;20417;-79
2022/03/04 07:31:18;;;;;;;34.63;19.42;;;;;;;;;;5044689;28;20429;-79
2022/03/04 07:33:44;;;;;;;31.98;19.02;;;;;;;;;;5045650;28;20428;-78
2022/03/04 07:36:10;;;;;;;34.63;19.20;;;;;;;;;;5040705;28;20495;-78
2022/03/04 07:38:37;;;;;;;34.45;19.25;;;;;;;;;;5042631;28;20483;-79
2022/03/04 07:41:03;;;;;;;33.10;19.35;;;;;;;;;;5043173;28;22303;-79
2022/03/04 07:43:29;;;;;;;35.38;19.52;;;;;;;;;;5043562;28;20440;-79
2022/03/04 07:45:55;;;;;;;32.33;19.40;;;;;;;;;;5043224;28;20433;-79
2022/03/04 07:48:23;;;;;;;29.05;18.13;;;;;;;;;;5043611;28;20415;-78
2022/03/04 07:50:49;;;;;;;30.85;18.65;;;;;;;;;;5044953;28;20429;-79
2022/03/04 07:53:16;;;;;;;31.95;18.90;;;;;;;;;;5042375;28;20826;-79
2022/03/04 07:55:43;;;;;;;33.75;18.83;;;;;;;;;;5046061;28;20455;-77
2022/03/04 07:58:09;;;;;;;36.45;18.80;;;;;;;;;;5048479;28;20938;-78
2022/03/04 08:00:36;;;;;;;32.63;18.90;;;;;;;;;;5050874;28;20447;-80
2022/03/04 08:03:02;;;;;;;30.00;17.40;;;;;;;;;;5038258;28;20806;-80
2022/03/04 08:05:29;;;;;;;31.17;18.00;;;;;;;;;;5043071;28;20461;-78
2022/03/04 08:07:56;;;;;;;29.17;16.85;;;;;;;;;;5040115;28;21120;-79
2022/03/04 08:10:22;;;;;;;29.15;17.80;;;;;;;;;;5032089;28;20533;-80
2022/03/04 08:12:48;;;;;;;33.67;18.43;;;;;;;;;;5032478;28;20466;-79
2022/03/04 08:15:14;;;;;;;35.17;19.23;;;;;;;;;;5036519;28;20419;-80
2022/03/04 08:17:41;;;;;;;32.72;18.88;;;;;;;;;;5033940;28;20419;-79
2022/03/04 08:20:08;;;;;;;32.63;18.60;;;;;;;;;;5036255;28;20520;-78
2022/03/04 08:22:37;;;;;;;33.08;18.45;;;;;;;;;;5034720;28;20441;-78
2022/03/04 08:25:03;;;;;;;36.92;20.02;;;;;;;;;;5035488;28;20421;-80
2022/03/04 08:27:30;;;;;;;34.63;19.55;;;;;;;;;;5037106;28;20427;-79
2022/03/04 08:29:56;;;;;;;31.55;18.35;;;;;;;;;;5033670;28;20435;-78
2022/03/04 08:32:23;;;;;;;28.27;18.30;;;;;;;;;;5035135;28;20492;-79
2022/03/04 08:34:49;;;;;;;28.55;17.92;;;;;;;;;;5035418;28;20429;-79
2022/03/04 08:37:16;;;;;;;28.00;16.65;;;;;;;;;;5034408;28;20457;-79
2022/03/04 08:39:43;;;;;;;29.25;17.33;;;;;;;;;;5034146;28;20432;-78
2022/03/04 08:42:09;;;;;;;31.95;17.42;;;;;;;;;;5032455;28;20433;-79
2022/03/04 08:44:36;;;;;;;27.40;17.00;;;;;;;;;;5034297;28;21116;-79
2022/03/04 08:47:02;;;;;;;28.45;16.55;;;;;;;;;;5031882;28;20430;-80
2022/03/04 08:49:28;;;;;;;26.70;16.53;;;;;;;;;;5032286;28;20413;-80
2022/03/04 08:51:55;;;;;;;31.83;17.40;;;;;;;;;;5036733;28;20422;-79
2022/03/04 08:54:23;;;;;;;28.27;16.83;;;;;;;;;;5036461;28;20414;-79
2022/03/04 08:56:51;;;;;;;25.70;17.00;;;;;;;;;;5034136;28;20510;-79
2022/03/04 08:59:17;;;;;;;27.95;16.20;;;;;;;;;;5033689;28;20442;-79
2022/03/04 09:01:43;;;;;;;29.25;17.15;;;;;;;;;;5033672;28;20444;-80
2022/03/04 09:04:13;;;;;;;30.50;16.95;;;;;;;;;;5034076;28;20429;-80
2022/03/04 09:06:40;;;;;;;30.98;16.52;;;;;;;;;;5033437;28;20428;-79
2022/03/04 09:09:06;;;;;;;28.55;17.70;;;;;;;;;;5030441;28;20804;-78
2022/03/04 09:11:32;;;;;;;28.60;15.90;;;;;;;;;;5034096;28;20473;-81
2022/03/04 09:14:00;;;;;;;26.33;15.40;;;;;;;;;;5035214;28;20425;-79
2022/03/04 09:16:26;;;;;;;28.73;17.10;;;;;;;;;;5035500;28;20451;-79
2022/03/04 09:18:53;;;;;;;26.27;16.25;;;;;;;;;;5033504;28;22218;-79
2022/03/04 09:21:19;;;;;;;23.85;14.68;;;;;;;;;;5033295;28;21029;-79
2022/03/04 09:23:45;;;;;;;28.95;16.17;;;;;;;;;;5035901;28;21079;-79
2022/03/04 09:26:11;;;;;;;25.33;14.70;;;;;;;;;;5036018;28;20409;-79
2022/03/04 09:28:38;;;;;;;27.98;15.73;;;;;;;;;;5038881;28;20417;-79
2022/03/04 09:31:06;;;;;;;22.60;14.60;;;;;;;;;;5038081;28;20759;-79
2022/03/04 09:33:32;;;;;;;26.42;14.95;;;;;;;;;;5035577;28;20509;-79
2022/03/04 09:36:00;;;;;;;21.75;14.20;;;;;;;;;;5040288;28;20421;-79
2022/03/04 09:38:26;;;;;;;23.05;14.30;;;;;;;;;;5036629;28;20789;-79
2022/03/04 09:40:52;;;;;;;24.23;14.60;;;;;;;;;;5039400;28;20963;-80
2022/03/04 09:43:19;;;;;;;22.35;13.77;;;;;;;;;;5041118;28;20503;-80
2022/03/04 09:45:46;;;;;;;23.35;14.27;;;;;;;;;;5042072;28;20444;-80
2022/03/04 09:48:13;;;;;;;25.67;14.73;;;;;;;;;;5036698;28;20425;-80
2022/03/04 09:50:42;;;;;;;25.90;14.77;;;;;;;;;;5037435;28;20434;-80
2022/03/04 09:53:11;;;;;;;23.15;14.65;;;;;;;;;;5041320;28;20942;-79
2022/03/04 09:55:37;;;;;;;22.30;13.73;;;;;;;;;;5040862;28;20890;-79
2022/03/04 09:58:05;;;;;;;20.23;12.50;;;;;;;;;;5040114;28;20426;-77
2022/03/04 10:00:31;;;;;;;19.75;12.07;;;;;;;;;;5039710;28;21056;-79
2022/03/04 10:02:58;;;;;;;20.70;13.13;;;;;;;;;;5040610;28;20504;-80
2022/03/04 10:05:25;;;;;;;22.92;13.65;;;;;;;;;;5040944;28;20409;-79
2022/03/04 10:07:51;;;;;;;22.83;13.90;;;;;;;;;;5019600;28;20430;-80
2022/03/04 10:10:18;;;;;;;20.90;13.32;;;;;;;;;;5020418;28;20908;-79
2022/03/04 10:12:49;;;;;;;19.80;12.40;;;;;;;;;;5017201;28;20419;-80
2022/03/04 10:15:15;;;;;;;20.60;12.77;;;;;;;;;;5018061;28;20911;-80
2022/03/04 10:17:42;;;;;;;19.45;11.77;;;;;;;;;;5018383;28;20993;-80
2022/03/04 10:20:09;;;;;;;19.30;12.05;;;;;;;;;;5018329;28;20433;-79
2022/03/04 10:22:42;;;;;;;21.77;12.85;;;;;;;;;;5016067;28;20435;-79
2022/03/04 10:25:15;;;;;;;20.33;13.15;;;;;;;;;;5020030;28;20938;-79
2022/03/04 10:27:42;;;;;;;21.23;12.07;;;;;;;;;;5017309;28;20542;-78
2022/03/04 10:30:08;;;;;;;19.57;11.77;;;;;;;;;;5020468;28;20409;-80
2022/03/04 10:32:35;;;;;;;19.27;11.93;;;;;;;;;;5021290;28;20412;-79
2022/03/04 10:35:02;;;;;;;22.30;12.43;;;;;;;;;;5023855;28;20891;-79
2022/03/04 10:37:40;;;;;;;18.40;12.05;;;;;;;;;;5020228;28;20459;-80
2022/03/04 10:40:08;;;;;;;20.75;11.50;;;;;;;;;;5023438;28;20428;-80
2022/03/04 10:42:42;;;;;;;20.50;11.50;;;;;;;;;;5017282;28;20437;-80
2022/03/04 10:45:09;;;;;;;17.48;11.50;;;;;;;;;;5021305;28;20890;-79
2022/03/04 10:47:46;;;;;;;18.75;12.13;;;;;;;;;;5023687;28;20429;-79
2022/03/04 10:50:13;;;;;;;17.87;11.90;;;;;;;;;;5022536;28;20408;-79
2022/03/04 10:52:52;;;;;;;19.45;11.35;;;;;;;;;;5021219;28;20432;-80
2022/03/04 10:55:39;;;;;;;19.52;11.02;;;;;;;;;;5024617;28;20419;-80
2022/03/04 10:58:07;;;;;;;17.35;11.05;;;;;;;;;;5023859;28;20408;-79
2022/03/04 11:00:35;;;;;;;19.25;11.75;;;;;;;;;;5023210;28;20487;-79
2022/03/04 11:03:02;;;;;;;19.00;11.60;;;;;;;;;;5021688;28;20474;-80
2022/03/04 11:05:28;;;;;;;18.35;11.30;;;;;;;;;;5021218;28;20907;-79
2022/03/04 11:07:56;;;;;;;18.20;10.98;;;;;;;;;;5023588;28;20415;-80
2022/03/04 11:10:23;;;;;;;18.02;10.63;;;;;;;;;;5020570;28;20545;-79
2022/03/04 11:12:52;;;;;;;16.63;10.20;;;;;;;;;;5022239;28;20419;-80
2022/03/04 11:15:19;;;;;;;15.70;10.50;;;;;;;;;;5022034;28;20450;-79
2022/03/04 11:17:46;;;;;;;17.63;11.05;;;;;;;;;;5023217;28;20422;-79
2022/03/04 11:20:13;;;;;;;17.70;10.37;;;;;;;;;;5022291;28;20429;-79
2022/03/04 11:22:40;;;;;;;18.95;10.80;;;;;;;;;;5023305;28;20422;-80
2022/03/04 11:25:12;;;;;;;20.02;10.75;;;;;;;;;;5022956;28;20471;-80
2022/03/04 11:27:41;;;;;;;16.38;10.07;;;;;;;;;;5022495;28;20439;-78
2022/03/04 11:30:09;;;;;;;15.05;10.15;;;;;;;;;;5020438;28;20918;-81
2022/03/04 11:32:35;;;;;;;16.42;10.23;;;;;;;;;;5021756;28;20479;-80
2022/03/04 11:35:01;;;;;;;16.38;10.80;;;;;;;;;;5023459;28;20417;-80
2022/03/04 11:37:31;;;;;;;16.92;10.75;;;;;;;;;;5024027;28;20431;-79
2022/03/04 11:40:01;;;;;;;16.67;10.23;;;;;;;;;;5022232;28;20438;-79
2022/03/04 11:42:35;;;;;;;15.30;10.00;;;;;;;;;;5022593;28;21000;-80
2022/03/04 11:45:02;;;;;;;15.95;10.00;;;;;;;;;;5015863;28;21136;-80
2022/03/04 11:47:37;;;;;;;18.02;10.13;;;;;;;;;;5020140;28;20427;-80
2022/03/04 11:50:18;;;;;;;15.45;10.05;;;;;;;;;;5021759;28;20407;-79
2022/03/04 11:52:44;;;;;;;17.35;10.05;;;;;;;;;;5024366;28;20415;-80
2022/03/04 11:55:20;;;;;;;15.07;10.02;;;;;;;;;;5025041;28;20411;-80
2022/03/04 11:57:49;;;;;;;16.73;10.55;;;;;;;;;;5023789;28;20458;-80
2022/03/04 12:00:23;;;;;;;15.10;9.30;;;;;;;;;;5022809;28;20854;-80
2022/03/04 12:02:51;;;;;;;16.30;9.75;;;;;;;;;;5021813;28;21052;-80
2022/03/04 12:05:25;;;;;;;14.68;10.02;;;;;;;;;;5021690;28;20518;-80
2022/03/04 12:08:06;;;;;;;14.77;9.77;;;;;;;;;;5024286;28;20421;-80
2022/03/04 12:10:34;;;;;;;15.95;9.70;;;;;;;;;;5023755;28;20436;-80
2022/03/04 12:13:04;;;;;;;15.18;9.82;;;;;;;;;;5025291;28;20418;-80
2022/03/04 12:15:31;;;;;;;14.75;9.88;;;;;;;;;;5022403;28;20900;-80
2022/03/04 12:17:59;;;;;;;13.23;9.30;;;;;;;;;;5023817;28;20419;-80
2022/03/04 12:20:26;;;;;;;13.90;8.80;;;;;;;;;;5020824;28;20439;-80
2022/03/04 12:22:57;;;;;;;12.90;8.52;;;;;;;;;;5023033;28;20419;-79
2022/03/04 12:25:23;;;;;;;12.55;8.40;;;;;;;;;;5022573;28;20428;-80
2022/03/04 12:27:54;;;;;;;12.82;9.18;;;;;;;;;;5022786;28;20422;-79
2022/03/04 12:30:22;;;;;;;12.57;8.02;;;;;;;;;;5022473;28;20774;-80
2022/03/04 12:32:50;;;;;;;12.63;8.40;;;;;;;;;;5046749;23;20437;-82
2022/03/04 12:35:17;;;;;;;11.85;7.90;;;;;;;;;;5024205;28;20436;-83
2022/03/04 12:37:43;;;;;;;14.75;9.18;;;;;;;;;;5022965;28;20432;-82
2022/03/04 12:40:10;;;;;;;12.77;8.48;;;;;;;;;;5021147;28;20445;-83
2022/03/04 12:42:36;;;;;;;12.13;8.35;;;;;;;;;;5023504;28;20421;-83
2022/03/04 12:45:03;;;;;;;13.88;9.10;;;;;;;;;;5022700;28;20427;-82
2022/03/04 12:47:36;;;;;;;10.93;7.63;;;;;;;;;;5039159;28;20421;-83
2022/03/04 12:50:02;;;;;;;11.03;7.20;;;;;;;;;;5041278;28;20500;-82
2022/03/04 12:52:28;;;;;;;11.45;7.35;;;;;;;;;;5041701;28;20425;-82
2022/03/04 12:54:55;;;;;;;11.65;7.70;;;;;;;;;;5040714;28;20423;-82
2022/03/04 12:57:24;;;;;;;14.32;7.93;;;;;;;;;;5042054;28;20415;-83
2022/03/04 12:59:50;;;;;;;12.38;7.88;;;;;;;;;;5041525;28;20423;-83
2022/03/04 13:02:17;;;;;;;13.50;8.70;;;;;;;;;;5039485;28;20422;-83
2022/03/04 13:04:57;;;;;;;12.83;8.10;;;;;;;;;;5042555;28;20418;-82
2022/03/04 13:07:24;;;;;;;13.15;8.77;;;;;;;;;;5040753;28;20440;-82
2022/03/04 13:09:51;;;;;;;11.73;7.53;;;;;;;;;;5041979;28;20423;-83
2022/03/04 13:12:20;;;;;;;11.47;7.50;;;;;;;;;;5040199;28;20535;-83
2022/03/04 13:14:47;;;;;;;12.30;7.95;;;;;;;;;;5038540;28;20440;-82
2022/03/04 13:17:13;;;;;;;11.70;7.47;;;;;;;;;;5040608;28;20959;-83
2022/03/04 13:19:40;;;;;;;10.55;7.47;;;;;;;;;;5041560;28;20504;-83
2022/03/04 13:22:08;;;;;;;11.45;7.45;;;;;;;;;;5041767;28;20418;-83
2022/03/04 13:24:35;;;;;;;11.60;7.32;;;;;;;;;;5043553;28;20423;-82
2022/03/04 13:27:04;;;;;;;12.65;7.25;;;;;;;;;;5042257;28;20737;-82
2022/03/04 13:29:32;;;;;;;10.07;7.00;;;;;;;;;;5037413;28;20782;-83
2022/03/04 13:32:04;;;;;;;13.02;7.57;;;;;;;;;;5041557;28;20779;-83
2022/03/04 13:34:31;;;;;;;11.32;7.28;;;;;;;;;;5039669;28;20453;-83
2022/03/04 13:37:00;;;;;;;11.18;7.05;;;;;;;;;;5041245;28;20434;-83
2022/03/04 13:39:29;;;;;;;10.30;7.43;;;;;;;;;;5042204;28;20841;-83
2022/03/04 13:42:12;;;;;;;10.88;6.65;;;;;;;;;;5040984;28;20477;-83
2022/03/04 13:44:48;;;;;;;9.95;6.80;;;;;;;;;;5042751;28;20446;-83
2022/03/04 13:47:14;;;;;;;11.60;6.77;;;;;;;;;;5042253;28;20419;-83
2022/03/04 13:49:41;;;;;;;9.25;6.70;;;;;;;;;;5042286;28;21097;-83
2022/03/04 13:52:08;;;;;;;9.52;6.60;;;;;;;;;;5038790;28;20423;-83
2022/03/04 13:54:58;;;;;;;9.90;6.60;;;;;;;;;;5044839;28;20408;-83
2022/03/04 13:57:25;;;;;;;9.10;6.57;;;;;;;;;;5044692;28;20421;-83
2022/03/04 13:59:51;;;;;;;7.70;5.60;;;;;;;;;;5041493;28;20427;-82
2022/03/04 14:02:18;;;;;;;7.45;4.90;;;;;;;;;;5043222;28;20413;-83
2022/03/04 14:04:51;;;;;;;5.57;4.70;;;;;;;;;;5043410;28;20426;-83
2022/03/04 14:07:18;;;;;;;7.20;4.88;;;;;;;;;;5041771;28;20429;-83
2022/03/04 14:09:45;;;;;;;7.47;4.70;;;;;;;;;;5047311;28;20426;-82
2022/03/04 14:12:13;;;;;;;5.82;4.40;;;;;;;;;;5045831;28;20424;-83
2022/03/04 14:14:39;;;;;;;5.20;4.28;;;;;;;;;;5047844;28;20414;-83
2022/03/04 14:17:05;;;;;;;6.80;4.67;;;;;;;;;;5045545;28;20423;-83
2022/03/04 14:19:31;;;;;;;6.00;4.90;;;;;;;;;;5044717;28;20422;-83